sensor_id;sensor_type;location;lat;lon;timestamp;P1;durP1;ratioP1;P2;durP2;ratioP2
7719;SDS011;3902;49.474;8.616;2024-03-06T00:02:18;5.03;;;3.67;;
7719;SDS011;3902;49.474;8.616;2024-03-06T00:04:44;5.97;;;4.07;;
7719;SDS011;3902;49.474;8.616;2024-03-06T00:07:09;6.43;;;3.63;;
7719;SDS011;3902;49.474;8.616;2024-03-06T00:09:35;5.40;;;4.03;;
7719;SDS011;3902;49.474;8.616;2024-03-06T00:12:01;5.10;;;3.70;;
7719;SDS011;3902;49.474;8.616;2024-03-06T00:14:27;4.70;;;3.90;;
7719;SDS011;3902;49.474;8.616;2024-03-06T00:16:53;4.20;;;3.80;;
7719;SDS011;3902;49.474;8.616;2024-03-06T00:19:20;5.50;;;3.73;;
7719;SDS011;3902;49.474;8.616;2024-03-06T00:21:46;4.10;;;3.70;;
7719;SDS011;3902;49.474;8.616;2024-03-06T00:24:12;4.80;;;3.87;;
7719;SDS011;3902;49.474;8.616;2024-03-06T00:26:41;4.00;;;3.20;;
7719;SDS011;3902;49.474;8.616;2024-03-06T00:29:08;3.90;;;3.50;;
7719;SDS011;3902;49.474;8.616;2024-03-06T00:31:34;5.10;;;3.90;;
7719;SDS011;3902;49.474;8.616;2024-03-06T00:33:59;4.80;;;3.50;;
7719;SDS011;3902;49.474;8.616;2024-03-06T00:36:25;3.70;;;3.30;;
7719;SDS011;3902;49.474;8.616;2024-03-06T00:38:50;4.50;;;3.83;;
7719;SDS011;3902;49.474;8.616;2024-03-06T00:41:16;5.67;;;3.90;;
7719;SDS011;3902;49.474;8.616;2024-03-06T00:43:41;5.13;;;3.70;;
7719;SDS011;3902;49.474;8.616;2024-03-06T00:46:07;4.10;;;3.50;;
7719;SDS011;3902;49.474;8.616;2024-03-06T00:48:32;5.83;;;3.50;;
7719;SDS011;3902;49.474;8.616;2024-03-06T00:50:58;5.63;;;3.63;;
7719;SDS011;3902;49.474;8.616;2024-03-06T00:53:23;4.87;;;3.90;;
7719;SDS011;3902;49.474;8.616;2024-03-06T00:55:49;6.40;;;3.80;;
7719;SDS011;3902;49.474;8.616;2024-03-06T00:58:15;3.73;;;3.40;;
7719;SDS011;3902;49.474;8.616;2024-03-06T01:00:40;4.00;;;3.60;;
7719;SDS011;3902;49.474;8.616;2024-03-06T01:03:05;5.23;;;3.57;;
7719;SDS011;3902;49.474;8.616;2024-03-06T01:05:31;4.60;;;3.90;;
7719;SDS011;3902;49.474;8.616;2024-03-06T01:07:57;3.73;;;3.40;;
7719;SDS011;3902;49.474;8.616;2024-03-06T01:10:24;4.30;;;3.50;;
7719;SDS011;3902;49.474;8.616;2024-03-06T01:12:49;5.10;;;4.00;;
7719;SDS011;3902;49.474;8.616;2024-03-06T01:15:15;3.67;;;3.37;;
7719;SDS011;3902;49.474;8.616;2024-03-06T01:17:40;4.77;;;3.67;;
7719;SDS011;3902;49.474;8.616;2024-03-06T01:20:06;3.83;;;3.30;;
7719;SDS011;3902;49.474;8.616;2024-03-06T01:22:33;5.13;;;3.80;;
7719;SDS011;3902;49.474;8.616;2024-03-06T01:24:59;5.40;;;4.23;;
7719;SDS011;3902;49.474;8.616;2024-03-06T01:27:25;3.80;;;3.30;;
7719;SDS011;3902;49.474;8.616;2024-03-06T01:29:51;8.77;;;4.00;;
7719;SDS011;3902;49.474;8.616;2024-03-06T01:32:16;4.27;;;3.40;;
7719;SDS011;3902;49.474;8.616;2024-03-06T01:34:42;3.90;;;3.60;;
7719;SDS011;3902;49.474;8.616;2024-03-06T01:37:08;4.43;;;3.70;;
7719;SDS011;3902;49.474;8.616;2024-03-06T01:39:33;4.93;;;3.67;;
7719;SDS011;3902;49.474;8.616;2024-03-06T01:42:00;4.80;;;3.70;;
7719;SDS011;3902;49.474;8.616;2024-03-06T01:44:26;5.57;;;4.00;;
7719;SDS011;3902;49.474;8.616;2024-03-06T01:46:52;3.90;;;3.47;;
7719;SDS011;3902;49.474;8.616;2024-03-06T01:49:21;3.90;;;3.40;;
7719;SDS011;3902;49.474;8.616;2024-03-06T01:51:49;3.93;;;3.53;;
7719;SDS011;3902;49.474;8.616;2024-03-06T01:54:17;3.73;;;3.17;;
7719;SDS011;3902;49.474;8.616;2024-03-06T01:56:44;4.60;;;4.13;;
7719;SDS011;3902;49.474;8.616;2024-03-06T01:59:11;4.40;;;4.00;;
7719;SDS011;3902;49.474;8.616;2024-03-06T02:01:38;4.30;;;3.83;;
7719;SDS011;3902;49.474;8.616;2024-03-06T02:04:05;4.20;;;3.77;;
7719;SDS011;3902;49.474;8.616;2024-03-06T02:06:34;4.10;;;3.33;;
7719;SDS011;3902;49.474;8.616;2024-03-06T02:09:00;4.90;;;4.40;;
7719;SDS011;3902;49.474;8.616;2024-03-06T02:11:28;4.07;;;3.47;;
7719;SDS011;3902;49.474;8.616;2024-03-06T02:13:54;5.30;;;3.83;;
7719;SDS011;3902;49.474;8.616;2024-03-06T02:16:19;4.93;;;3.80;;
7719;SDS011;3902;49.474;8.616;2024-03-06T02:18:55;4.83;;;3.93;;
7719;SDS011;3902;49.474;8.616;2024-03-06T02:21:22;7.30;;;3.97;;
7719;SDS011;3902;49.474;8.616;2024-03-06T02:23:49;5.23;;;4.00;;
7719;SDS011;3902;49.474;8.616;2024-03-06T02:26:20;4.73;;;3.63;;
7719;SDS011;3902;49.474;8.616;2024-03-06T02:28:49;3.67;;;3.30;;
7719;SDS011;3902;49.474;8.616;2024-03-06T02:31:16;3.90;;;3.57;;
7719;SDS011;3902;49.474;8.616;2024-03-06T02:33:43;4.30;;;3.50;;
7719;SDS011;3902;49.474;8.616;2024-03-06T02:36:09;3.80;;;3.27;;
7719;SDS011;3902;49.474;8.616;2024-03-06T02:38:47;3.87;;;3.23;;
7719;SDS011;3902;49.474;8.616;2024-03-06T02:41:13;3.30;;;2.90;;
7719;SDS011;3902;49.474;8.616;2024-03-06T02:43:40;3.30;;;3.03;;
7719;SDS011;3902;49.474;8.616;2024-03-06T02:46:07;4.20;;;3.43;;
7719;SDS011;3902;49.474;8.616;2024-03-06T02:48:32;3.37;;;3.07;;
7719;SDS011;3902;49.474;8.616;2024-03-06T02:50:58;4.03;;;3.63;;
7719;SDS011;3902;49.474;8.616;2024-03-06T02:53:24;4.97;;;3.50;;
7719;SDS011;3902;49.474;8.616;2024-03-06T02:55:51;4.10;;;3.00;;
7719;SDS011;3902;49.474;8.616;2024-03-06T02:58:17;4.10;;;3.50;;
7719;SDS011;3902;49.474;8.616;2024-03-06T03:00:42;3.70;;;3.07;;
7719;SDS011;3902;49.474;8.616;2024-03-06T03:03:08;3.07;;;2.83;;
7719;SDS011;3902;49.474;8.616;2024-03-06T03:05:35;3.40;;;3.10;;
7719;SDS011;3902;49.474;8.616;2024-03-06T03:08:01;3.63;;;3.23;;
7719;SDS011;3902;49.474;8.616;2024-03-06T03:10:26;4.50;;;3.50;;
7719;SDS011;3902;49.474;8.616;2024-03-06T03:12:52;4.17;;;3.57;;
7719;SDS011;3902;49.474;8.616;2024-03-06T03:15:19;4.10;;;3.33;;
7719;SDS011;3902;49.474;8.616;2024-03-06T03:17:45;3.50;;;3.03;;
7719;SDS011;3902;49.474;8.616;2024-03-06T03:20:11;3.77;;;3.47;;
7719;SDS011;3902;49.474;8.616;2024-03-06T03:22:37;4.33;;;3.37;;
7719;SDS011;3902;49.474;8.616;2024-03-06T03:25:03;4.27;;;3.87;;
7719;SDS011;3902;49.474;8.616;2024-03-06T03:27:32;6.23;;;3.70;;
7719;SDS011;3902;49.474;8.616;2024-03-06T03:29:58;4.80;;;4.00;;
7719;SDS011;3902;49.474;8.616;2024-03-06T03:32:24;5.10;;;3.30;;
7719;SDS011;3902;49.474;8.616;2024-03-06T03:34:49;4.00;;;3.10;;
7719;SDS011;3902;49.474;8.616;2024-03-06T03:37:15;3.87;;;3.03;;
7719;SDS011;3902;49.474;8.616;2024-03-06T03:39:40;4.40;;;3.60;;
7719;SDS011;3902;49.474;8.616;2024-03-06T03:42:07;3.90;;;3.50;;
7719;SDS011;3902;49.474;8.616;2024-03-06T03:44:33;4.77;;;3.50;;
7719;SDS011;3902;49.474;8.616;2024-03-06T03:46:58;4.53;;;3.70;;
7719;SDS011;3902;49.474;8.616;2024-03-06T03:49:24;4.70;;;4.20;;
7719;SDS011;3902;49.474;8.616;2024-03-06T03:51:49;4.10;;;3.70;;
7719;SDS011;3902;49.474;8.616;2024-03-06T03:54:15;4.50;;;3.60;;
7719;SDS011;3902;49.474;8.616;2024-03-06T03:56:40;4.07;;;3.63;;
7719;SDS011;3902;49.474;8.616;2024-03-06T03:59:06;5.50;;;4.00;;
7719;SDS011;3902;49.474;8.616;2024-03-06T04:01:32;4.57;;;3.37;;
7719;SDS011;3902;49.474;8.616;2024-03-06T04:03:57;5.00;;;3.83;;
7719;SDS011;3902;49.474;8.616;2024-03-06T04:06:23;5.60;;;3.50;;
7719;SDS011;3902;49.474;8.616;2024-03-06T04:08:48;5.00;;;4.20;;
7719;SDS011;3902;49.474;8.616;2024-03-06T04:11:14;4.20;;;3.47;;
7719;SDS011;3902;49.474;8.616;2024-03-06T04:13:39;4.50;;;4.10;;
7719;SDS011;3902;49.474;8.616;2024-03-06T04:16:05;4.70;;;3.87;;
7719;SDS011;3902;49.474;8.616;2024-03-06T04:18:31;4.03;;;3.63;;
7719;SDS011;3902;49.474;8.616;2024-03-06T04:21:06;5.90;;;3.83;;
7719;SDS011;3902;49.474;8.616;2024-03-06T04:23:32;4.67;;;3.97;;
7719;SDS011;3902;49.474;8.616;2024-03-06T04:25:58;4.87;;;3.30;;
7719;SDS011;3902;49.474;8.616;2024-03-06T04:28:24;6.53;;;3.93;;
7719;SDS011;3902;49.474;8.616;2024-03-06T04:30:50;4.73;;;3.63;;
7719;SDS011;3902;49.474;8.616;2024-03-06T04:33:15;5.10;;;4.00;;
7719;SDS011;3902;49.474;8.616;2024-03-06T04:35:41;4.47;;;3.70;;
7719;SDS011;3902;49.474;8.616;2024-03-06T04:38:06;3.77;;;3.37;;
7719;SDS011;3902;49.474;8.616;2024-03-06T04:40:33;4.23;;;3.67;;
7719;SDS011;3902;49.474;8.616;2024-03-06T04:42:59;4.50;;;3.90;;
7719;SDS011;3902;49.474;8.616;2024-03-06T04:45:25;4.10;;;3.70;;
7719;SDS011;3902;49.474;8.616;2024-03-06T04:47:51;4.47;;;4.07;;
7719;SDS011;3902;49.474;8.616;2024-03-06T04:50:16;4.60;;;4.07;;
7719;SDS011;3902;49.474;8.616;2024-03-06T04:52:42;4.90;;;4.23;;
7719;SDS011;3902;49.474;8.616;2024-03-06T04:55:09;4.20;;;3.80;;
7719;SDS011;3902;49.474;8.616;2024-03-06T04:57:36;4.93;;;3.90;;
7719;SDS011;3902;49.474;8.616;2024-03-06T05:00:02;5.90;;;3.67;;
7719;SDS011;3902;49.474;8.616;2024-03-06T05:02:33;5.33;;;3.73;;
7719;SDS011;3902;49.474;8.616;2024-03-06T05:05:02;4.50;;;3.80;;
7719;SDS011;3902;49.474;8.616;2024-03-06T05:07:29;4.50;;;4.10;;
7719;SDS011;3902;49.474;8.616;2024-03-06T05:09:56;6.07;;;4.57;;
7719;SDS011;3902;49.474;8.616;2024-03-06T05:12:23;5.37;;;4.23;;
7719;SDS011;3902;49.474;8.616;2024-03-06T05:14:49;5.40;;;3.97;;
7719;SDS011;3902;49.474;8.616;2024-03-06T05:17:16;6.40;;;4.17;;
7719;SDS011;3902;49.474;8.616;2024-03-06T05:19:42;5.33;;;4.77;;
7719;SDS011;3902;49.474;8.616;2024-03-06T05:22:08;5.50;;;4.27;;
7719;SDS011;3902;49.474;8.616;2024-03-06T05:24:34;5.93;;;4.53;;
7719;SDS011;3902;49.474;8.616;2024-03-06T05:26:59;5.67;;;4.37;;
7719;SDS011;3902;49.474;8.616;2024-03-06T05:29:24;5.30;;;4.40;;
7719;SDS011;3902;49.474;8.616;2024-03-06T05:31:51;6.10;;;4.33;;
7719;SDS011;3902;49.474;8.616;2024-03-06T05:34:16;4.60;;;4.00;;
7719;SDS011;3902;49.474;8.616;2024-03-06T05:36:42;5.30;;;4.80;;
7719;SDS011;3902;49.474;8.616;2024-03-06T05:39:07;4.60;;;4.10;;
7719;SDS011;3902;49.474;8.616;2024-03-06T05:41:37;4.90;;;4.23;;
7719;SDS011;3902;49.474;8.616;2024-03-06T05:44:03;5.40;;;4.40;;
7719;SDS011;3902;49.474;8.616;2024-03-06T05:46:29;6.23;;;4.20;;
7719;SDS011;3902;49.474;8.616;2024-03-06T05:48:54;4.87;;;4.13;;
7719;SDS011;3902;49.474;8.616;2024-03-06T05:51:20;5.33;;;4.33;;
7719;SDS011;3902;49.474;8.616;2024-03-06T05:53:45;6.10;;;4.23;;
7719;SDS011;3902;49.474;8.616;2024-03-06T05:56:11;4.60;;;3.80;;
7719;SDS011;3902;49.474;8.616;2024-03-06T05:58:36;4.07;;;3.67;;
7719;SDS011;3902;49.474;8.616;2024-03-06T06:01:02;4.70;;;4.10;;
7719;SDS011;3902;49.474;8.616;2024-03-06T06:03:28;4.97;;;4.03;;
7719;SDS011;3902;49.474;8.616;2024-03-06T06:05:57;4.70;;;4.20;;
7719;SDS011;3902;49.474;8.616;2024-03-06T06:08:23;6.17;;;4.60;;
7719;SDS011;3902;49.474;8.616;2024-03-06T06:10:49;4.70;;;4.20;;
7719;SDS011;3902;49.474;8.616;2024-03-06T06:13:16;5.27;;;4.33;;
7719;SDS011;3902;49.474;8.616;2024-03-06T06:15:42;5.03;;;4.60;;
7719;SDS011;3902;49.474;8.616;2024-03-06T06:18:08;4.60;;;4.20;;
7719;SDS011;3902;49.474;8.616;2024-03-06T06:20:33;5.63;;;4.97;;
7719;SDS011;3902;49.474;8.616;2024-03-06T06:22:59;5.03;;;4.50;;
7719;SDS011;3902;49.474;8.616;2024-03-06T06:25:25;6.90;;;5.27;;
7719;SDS011;3902;49.474;8.616;2024-03-06T06:27:50;5.60;;;5.10;;
7719;SDS011;3902;49.474;8.616;2024-03-06T06:30:16;5.83;;;5.33;;
7719;SDS011;3902;49.474;8.616;2024-03-06T06:32:42;6.70;;;5.10;;
7719;SDS011;3902;49.474;8.616;2024-03-06T06:35:08;5.27;;;4.77;;
7719;SDS011;3902;49.474;8.616;2024-03-06T06:37:34;5.77;;;4.50;;
7719;SDS011;3902;49.474;8.616;2024-03-06T06:40:00;8.00;;;4.70;;
7719;SDS011;3902;49.474;8.616;2024-03-06T06:42:31;5.23;;;4.73;;
7719;SDS011;3902;49.474;8.616;2024-03-06T06:44:57;6.37;;;4.97;;
7719;SDS011;3902;49.474;8.616;2024-03-06T06:47:23;6.00;;;4.73;;
7719;SDS011;3902;49.474;8.616;2024-03-06T06:49:48;6.37;;;4.63;;
7719;SDS011;3902;49.474;8.616;2024-03-06T06:52:14;6.23;;;5.40;;
7719;SDS011;3902;49.474;8.616;2024-03-06T06:54:39;4.73;;;4.33;;
7719;SDS011;3902;49.474;8.616;2024-03-06T06:57:05;6.50;;;5.80;;
7719;SDS011;3902;49.474;8.616;2024-03-06T06:59:31;7.67;;;4.97;;
7719;SDS011;3902;49.474;8.616;2024-03-06T07:01:56;4.60;;;4.20;;
7719;SDS011;3902;49.474;8.616;2024-03-06T07:04:22;5.43;;;4.90;;
7719;SDS011;3902;49.474;8.616;2024-03-06T07:06:49;5.60;;;4.67;;
7719;SDS011;3902;49.474;8.616;2024-03-06T07:09:15;4.90;;;4.40;;
7719;SDS011;3902;49.474;8.616;2024-03-06T07:11:41;5.27;;;4.77;;
7719;SDS011;3902;49.474;8.616;2024-03-06T07:14:07;6.10;;;4.83;;
7719;SDS011;3902;49.474;8.616;2024-03-06T07:16:33;5.03;;;4.50;;
7719;SDS011;3902;49.474;8.616;2024-03-06T07:18:58;4.83;;;4.43;;
7719;SDS011;3902;49.474;8.616;2024-03-06T07:21:24;6.40;;;5.40;;
7719;SDS011;3902;49.474;8.616;2024-03-06T07:23:50;5.30;;;4.80;;
7719;SDS011;3902;49.474;8.616;2024-03-06T07:26:16;6.47;;;4.83;;
7719;SDS011;3902;49.474;8.616;2024-03-06T07:28:41;6.30;;;5.40;;
7719;SDS011;3902;49.474;8.616;2024-03-06T07:31:07;7.20;;;4.93;;
7719;SDS011;3902;49.474;8.616;2024-03-06T07:33:32;5.47;;;4.97;;
7719;SDS011;3902;49.474;8.616;2024-03-06T07:35:59;5.40;;;4.90;;
7719;SDS011;3902;49.474;8.616;2024-03-06T07:38:24;6.57;;;5.63;;
7719;SDS011;3902;49.474;8.616;2024-03-06T07:40:50;6.73;;;5.90;;
7719;SDS011;3902;49.474;8.616;2024-03-06T07:43:15;7.77;;;5.10;;
7719;SDS011;3902;49.474;8.616;2024-03-06T07:45:41;6.60;;;5.67;;
7719;SDS011;3902;49.474;8.616;2024-03-06T07:48:06;7.37;;;5.57;;
7719;SDS011;3902;49.474;8.616;2024-03-06T07:50:34;6.97;;;5.17;;
7719;SDS011;3902;49.474;8.616;2024-03-06T07:53:00;7.10;;;5.60;;
7719;SDS011;3902;49.474;8.616;2024-03-06T07:55:25;6.77;;;5.57;;
7719;SDS011;3902;49.474;8.616;2024-03-06T07:57:51;8.53;;;5.67;;
7719;SDS011;3902;49.474;8.616;2024-03-06T08:00:17;6.93;;;6.23;;
7719;SDS011;3902;49.474;8.616;2024-03-06T08:02:44;9.63;;;6.10;;
7719;SDS011;3902;49.474;8.616;2024-03-06T08:05:15;7.80;;;6.27;;
7719;SDS011;3902;49.474;8.616;2024-03-06T08:07:40;7.83;;;6.17;;
7719;SDS011;3902;49.474;8.616;2024-03-06T08:10:09;6.57;;;5.70;;
7719;SDS011;3902;49.474;8.616;2024-03-06T08:12:38;7.93;;;6.20;;
7719;SDS011;3902;49.474;8.616;2024-03-06T08:15:07;7.63;;;6.47;;
7719;SDS011;3902;49.474;8.616;2024-03-06T08:17:36;9.30;;;6.37;;
7719;SDS011;3902;49.474;8.616;2024-03-06T08:20:03;9.20;;;7.00;;
7719;SDS011;3902;49.474;8.616;2024-03-06T08:22:33;10.23;;;7.20;;
7719;SDS011;3902;49.474;8.616;2024-03-06T08:25:06;8.87;;;7.47;;
7719;SDS011;3902;49.474;8.616;2024-03-06T08:27:36;7.40;;;5.60;;
7719;SDS011;3902;49.474;8.616;2024-03-06T08:30:04;7.40;;;6.67;;
7719;SDS011;3902;49.474;8.616;2024-03-06T08:32:30;8.40;;;7.30;;
7719;SDS011;3902;49.474;8.616;2024-03-06T08:35:00;7.50;;;6.60;;
7719;SDS011;3902;49.474;8.616;2024-03-06T08:37:31;8.40;;;6.90;;
7719;SDS011;3902;49.474;8.616;2024-03-06T08:39:58;7.20;;;6.50;;
7719;SDS011;3902;49.474;8.616;2024-03-06T08:42:24;7.57;;;6.77;;
7719;SDS011;3902;49.474;8.616;2024-03-06T08:44:50;8.27;;;7.03;;
7719;SDS011;3902;49.474;8.616;2024-03-06T08:47:15;8.33;;;6.73;;
7719;SDS011;3902;49.474;8.616;2024-03-06T08:49:41;7.27;;;6.57;;
7719;SDS011;3902;49.474;8.616;2024-03-06T08:52:07;7.07;;;6.37;;
7719;SDS011;3902;49.474;8.616;2024-03-06T08:54:34;6.93;;;6.13;;
7719;SDS011;3902;49.474;8.616;2024-03-06T08:57:00;7.90;;;6.40;;
7719;SDS011;3902;49.474;8.616;2024-03-06T08:59:27;6.77;;;5.60;;
7719;SDS011;3902;49.474;8.616;2024-03-06T09:01:56;6.43;;;5.83;;
7719;SDS011;3902;49.474;8.616;2024-03-06T09:04:22;6.37;;;5.77;;
7719;SDS011;3902;49.474;8.616;2024-03-06T09:06:48;7.23;;;6.53;;
7719;SDS011;3902;49.474;8.616;2024-03-06T09:09:16;6.17;;;5.67;;
7719;SDS011;3902;49.474;8.616;2024-03-06T09:11:42;5.63;;;5.13;;
7719;SDS011;3902;49.474;8.616;2024-03-06T09:14:07;5.53;;;5.03;;
7719;SDS011;3902;49.474;8.616;2024-03-06T09:16:34;6.60;;;5.90;;
7719;SDS011;3902;49.474;8.616;2024-03-06T09:19:00;5.83;;;5.23;;
7719;SDS011;3902;49.474;8.616;2024-03-06T09:21:25;5.77;;;5.17;;
7719;SDS011;3902;49.474;8.616;2024-03-06T09:23:51;5.73;;;5.13;;
7719;SDS011;3902;49.474;8.616;2024-03-06T09:26:17;5.20;;;4.70;;
7719;SDS011;3902;49.474;8.616;2024-03-06T09:28:42;5.07;;;4.57;;
7719;SDS011;3902;49.474;8.616;2024-03-06T09:31:08;6.40;;;4.97;;
7719;SDS011;3902;49.474;8.616;2024-03-06T09:33:33;5.53;;;5.03;;
7719;SDS011;3902;49.474;8.616;2024-03-06T09:35:59;5.30;;;4.90;;
7719;SDS011;3902;49.474;8.616;2024-03-06T09:38:25;6.30;;;5.17;;
7719;SDS011;3902;49.474;8.616;2024-03-06T09:40:50;5.47;;;4.97;;
7719;SDS011;3902;49.474;8.616;2024-03-06T09:43:17;8.23;;;5.80;;
7719;SDS011;3902;49.474;8.616;2024-03-06T09:45:44;5.37;;;4.87;;
7719;SDS011;3902;49.474;8.616;2024-03-06T09:48:13;5.53;;;4.93;;
7719;SDS011;3902;49.474;8.616;2024-03-06T09:50:38;5.77;;;5.20;;
7719;SDS011;3902;49.474;8.616;2024-03-06T09:53:10;7.07;;;5.70;;
7719;SDS011;3902;49.474;8.616;2024-03-06T09:55:39;6.23;;;5.70;;
7719;SDS011;3902;49.474;8.616;2024-03-06T09:58:06;7.80;;;6.10;;
7719;SDS011;3902;49.474;8.616;2024-03-06T10:00:33;6.70;;;6.10;;
7719;SDS011;3902;49.474;8.616;2024-03-06T10:03:02;7.30;;;5.30;;
7719;SDS011;3902;49.474;8.616;2024-03-06T10:05:33;5.57;;;5.03;;
7719;SDS011;3902;49.474;8.616;2024-03-06T10:08:02;6.17;;;5.57;;
7719;SDS011;3902;49.474;8.616;2024-03-06T10:10:31;6.30;;;5.23;;
7719;SDS011;3902;49.474;8.616;2024-03-06T10:12:57;5.50;;;5.00;;
7719;SDS011;3902;49.474;8.616;2024-03-06T10:15:24;5.63;;;5.13;;
7719;SDS011;3902;49.474;8.616;2024-03-06T10:17:51;8.40;;;5.07;;
7719;SDS011;3902;49.474;8.616;2024-03-06T10:22:48;5.67;;;5.13;;
7719;SDS011;3902;49.474;8.616;2024-03-06T10:25:15;6.53;;;5.60;;
7719;SDS011;3902;49.474;8.616;2024-03-06T10:27:43;7.17;;;5.93;;
7719;SDS011;3902;49.474;8.616;2024-03-06T10:30:09;6.50;;;5.80;;
7719;SDS011;3902;49.474;8.616;2024-03-06T10:32:37;6.63;;;5.40;;
7719;SDS011;3902;49.474;8.616;2024-03-06T10:35:03;6.43;;;5.80;;
7719;SDS011;3902;49.474;8.616;2024-03-06T10:37:31;6.10;;;5.50;;
7719;SDS011;3902;49.474;8.616;2024-03-06T10:39:59;5.40;;;4.90;;
7719;SDS011;3902;49.474;8.616;2024-03-06T10:42:30;7.40;;;5.43;;
7719;SDS011;3902;49.474;8.616;2024-03-06T10:44:58;7.73;;;6.30;;
7719;SDS011;3902;49.474;8.616;2024-03-06T10:47:25;6.47;;;5.70;;
7719;SDS011;3902;49.474;8.616;2024-03-06T10:49:53;6.53;;;5.93;;
7719;SDS011;3902;49.474;8.616;2024-03-06T10:52:20;5.87;;;5.17;;
7719;SDS011;3902;49.474;8.616;2024-03-06T10:54:47;5.50;;;5.00;;
7719;SDS011;3902;49.474;8.616;2024-03-06T10:57:13;6.17;;;5.60;;
7719;SDS011;3902;49.474;8.616;2024-03-06T10:59:39;6.33;;;5.73;;
7719;SDS011;3902;49.474;8.616;2024-03-06T11:02:07;6.20;;;5.40;;
7719;SDS011;3902;49.474;8.616;2024-03-06T11:04:34;6.30;;;5.70;;
7719;SDS011;3902;49.474;8.616;2024-03-06T11:07:03;5.80;;;5.03;;
7719;SDS011;3902;49.474;8.616;2024-03-06T11:09:33;7.10;;;6.40;;
7719;SDS011;3902;49.474;8.616;2024-03-06T11:11:59;8.00;;;6.30;;
7719;SDS011;3902;49.474;8.616;2024-03-06T11:14:25;7.87;;;7.07;;
7719;SDS011;3902;49.474;8.616;2024-03-06T11:19:30;6.80;;;6.20;;
7719;SDS011;3902;49.474;8.616;2024-03-06T11:21:56;6.60;;;5.90;;
7719;SDS011;3902;49.474;8.616;2024-03-06T11:24:23;6.80;;;5.43;;
7719;SDS011;3902;49.474;8.616;2024-03-06T11:26:56;6.13;;;5.50;;
7719;SDS011;3902;49.474;8.616;2024-03-06T11:29:29;6.00;;;5.50;;
7719;SDS011;3902;49.474;8.616;2024-03-06T11:32:56;6.37;;;5.77;;
7719;SDS011;3902;49.474;8.616;2024-03-06T11:35:28;7.97;;;7.17;;
7719;SDS011;3902;49.474;8.616;2024-03-06T11:37:54;8.37;;;6.80;;
7719;SDS011;3902;49.474;8.616;2024-03-06T11:40:23;7.57;;;6.87;;
7719;SDS011;3902;49.474;8.616;2024-03-06T11:42:49;8.00;;;7.20;;
7719;SDS011;3902;49.474;8.616;2024-03-06T11:45:15;7.47;;;6.77;;
7719;SDS011;3902;49.474;8.616;2024-03-06T11:48:01;7.70;;;6.70;;
7719;SDS011;3902;49.474;8.616;2024-03-06T11:50:27;8.17;;;7.33;;
7719;SDS011;3902;49.474;8.616;2024-03-06T11:52:55;7.63;;;6.90;;
7719;SDS011;3902;49.474;8.616;2024-03-06T11:55:21;7.97;;;7.17;;
7719;SDS011;3902;49.474;8.616;2024-03-06T11:57:52;8.23;;;7.37;;
7719;SDS011;3902;49.474;8.616;2024-03-06T12:00:22;7.40;;;6.70;;
7719;SDS011;3902;49.474;8.616;2024-03-06T12:02:48;11.33;;;8.60;;
7719;SDS011;3902;49.474;8.616;2024-03-06T12:05:16;9.50;;;8.53;;
7719;SDS011;3902;49.474;8.616;2024-03-06T12:07:52;10.70;;;9.70;;
7719;SDS011;3902;49.474;8.616;2024-03-06T12:10:17;9.97;;;9.00;;
7719;SDS011;3902;49.474;8.616;2024-03-06T12:12:43;9.80;;;8.80;;
7719;SDS011;3902;49.474;8.616;2024-03-06T12:15:10;10.47;;;9.47;;
7719;SDS011;3902;49.474;8.616;2024-03-06T12:17:48;9.80;;;8.80;;
7719;SDS011;3902;49.474;8.616;2024-03-06T12:20:17;11.90;;;9.53;;
7719;SDS011;3902;49.474;8.616;2024-03-06T12:22:49;10.43;;;9.43;;
7719;SDS011;3902;49.474;8.616;2024-03-06T12:25:22;9.90;;;8.90;;
7719;SDS011;3902;49.474;8.616;2024-03-06T12:27:49;9.63;;;8.70;;
7719;SDS011;3902;49.474;8.616;2024-03-06T12:30:17;9.93;;;9.00;;
7719;SDS011;3902;49.474;8.616;2024-03-06T12:32:44;10.33;;;8.83;;
7719;SDS011;3902;49.474;8.616;2024-03-06T12:35:10;10.20;;;9.20;;
7719;SDS011;3902;49.474;8.616;2024-03-06T12:37:36;11.30;;;10.10;;
7719;SDS011;3902;49.474;8.616;2024-03-06T12:40:02;10.00;;;9.00;;
7719;SDS011;3902;49.474;8.616;2024-03-06T12:42:29;10.00;;;9.10;;
7719;SDS011;3902;49.474;8.616;2024-03-06T12:44:55;10.80;;;9.70;;
7719;SDS011;3902;49.474;8.616;2024-03-06T12:47:20;10.60;;;9.50;;
7719;SDS011;3902;49.474;8.616;2024-03-06T12:49:46;10.47;;;9.47;;
7719;SDS011;3902;49.474;8.616;2024-03-06T12:52:11;10.87;;;9.77;;
7719;SDS011;3902;49.474;8.616;2024-03-06T12:54:37;10.37;;;9.37;;
7719;SDS011;3902;49.474;8.616;2024-03-06T12:57:03;10.27;;;9.20;;
7719;SDS011;3902;49.474;8.616;2024-03-06T12:59:29;11.53;;;10.30;;
7719;SDS011;3902;49.474;8.616;2024-03-06T13:01:54;11.13;;;9.87;;
7719;SDS011;3902;49.474;8.616;2024-03-06T13:04:20;11.53;;;10.33;;
7719;SDS011;3902;49.474;8.616;2024-03-06T13:06:45;11.37;;;10.17;;
7719;SDS011;3902;49.474;8.616;2024-03-06T13:09:11;11.90;;;10.70;;
7719;SDS011;3902;49.474;8.616;2024-03-06T13:11:37;12.83;;;11.50;;
7719;SDS011;3902;49.474;8.616;2024-03-06T13:14:03;12.83;;;11.53;;
7719;SDS011;3902;49.474;8.616;2024-03-06T13:16:28;11.77;;;10.60;;
7719;SDS011;3902;49.474;8.616;2024-03-06T13:18:54;12.57;;;11.30;;
7719;SDS011;3902;49.474;8.616;2024-03-06T13:21:21;10.50;;;9.50;;
7719;SDS011;3902;49.474;8.616;2024-03-06T13:23:47;12.50;;;11.20;;
7719;SDS011;3902;49.474;8.616;2024-03-06T13:26:13;12.10;;;10.80;;
7719;SDS011;3902;49.474;8.616;2024-03-06T13:28:38;12.30;;;11.00;;
7719;SDS011;3902;49.474;8.616;2024-03-06T13:31:04;12.37;;;11.07;;
7719;SDS011;3902;49.474;8.616;2024-03-06T13:33:33;11.13;;;10.03;;
7719;SDS011;3902;49.474;8.616;2024-03-06T13:35:58;10.53;;;9.50;;
7719;SDS011;3902;49.474;8.616;2024-03-06T13:38:24;11.50;;;10.30;;
7719;SDS011;3902;49.474;8.616;2024-03-06T13:40:49;11.40;;;10.23;;
7719;SDS011;3902;49.474;8.616;2024-03-06T13:43:15;10.27;;;8.83;;
7719;SDS011;3902;49.474;8.616;2024-03-06T13:45:50;10.03;;;9.03;;
7719;SDS011;3902;49.474;8.616;2024-03-06T13:48:16;10.30;;;9.30;;
7719;SDS011;3902;49.474;8.616;2024-03-06T13:50:45;11.13;;;9.90;;
7719;SDS011;3902;49.474;8.616;2024-03-06T13:53:11;11.17;;;10.07;;
7719;SDS011;3902;49.474;8.616;2024-03-06T13:55:37;10.13;;;8.83;;
7719;SDS011;3902;49.474;8.616;2024-03-06T13:58:03;9.73;;;8.80;;
7719;SDS011;3902;49.474;8.616;2024-03-06T14:00:29;11.00;;;9.57;;
7719;SDS011;3902;49.474;8.616;2024-03-06T14:02:54;12.30;;;10.70;;
7719;SDS011;3902;49.474;8.616;2024-03-06T14:05:20;11.27;;;10.17;;
7719;SDS011;3902;49.474;8.616;2024-03-06T14:07:51;11.30;;;10.20;;
7719;SDS011;3902;49.474;8.616;2024-03-06T14:10:17;11.20;;;10.00;;
7719;SDS011;3902;49.474;8.616;2024-03-06T14:12:47;11.67;;;10.53;;
7719;SDS011;3902;49.474;8.616;2024-03-06T14:15:16;11.40;;;10.20;;
7719;SDS011;3902;49.474;8.616;2024-03-06T14:17:44;10.87;;;9.77;;
7719;SDS011;3902;49.474;8.616;2024-03-06T14:20:10;12.13;;;10.83;;
7719;SDS011;3902;49.474;8.616;2024-03-06T14:22:40;11.70;;;10.50;;
7719;SDS011;3902;49.474;8.616;2024-03-06T14:25:07;10.67;;;9.67;;
7719;SDS011;3902;49.474;8.616;2024-03-06T14:27:33;11.03;;;9.83;;
7719;SDS011;3902;49.474;8.616;2024-03-06T14:30:00;12.00;;;10.80;;
7719;SDS011;3902;49.474;8.616;2024-03-06T14:32:27;12.63;;;11.30;;
7719;SDS011;3902;49.474;8.616;2024-03-06T14:34:53;12.23;;;10.93;;
7719;SDS011;3902;49.474;8.616;2024-03-06T14:37:18;11.77;;;10.57;;
7719;SDS011;3902;49.474;8.616;2024-03-06T14:39:44;11.27;;;10.13;;
7719;SDS011;3902;49.474;8.616;2024-03-06T14:42:10;12.07;;;10.87;;
7719;SDS011;3902;49.474;8.616;2024-03-06T14:44:35;13.30;;;11.73;;
7719;SDS011;3902;49.474;8.616;2024-03-06T14:47:01;12.57;;;11.37;;
7719;SDS011;3902;49.474;8.616;2024-03-06T14:49:26;11.03;;;9.87;;
7719;SDS011;3902;49.474;8.616;2024-03-06T14:51:52;11.10;;;9.67;;
7719;SDS011;3902;49.474;8.616;2024-03-06T14:54:18;10.47;;;9.47;;
7719;SDS011;3902;49.474;8.616;2024-03-06T14:56:43;11.60;;;10.40;;
7719;SDS011;3902;49.474;8.616;2024-03-06T14:59:09;11.53;;;10.33;;
7719;SDS011;3902;49.474;8.616;2024-03-06T15:01:34;10.43;;;9.43;;
7719;SDS011;3902;49.474;8.616;2024-03-06T15:04:02;10.93;;;9.87;;
7719;SDS011;3902;49.474;8.616;2024-03-06T15:06:28;12.57;;;11.37;;
7719;SDS011;3902;49.474;8.616;2024-03-06T15:08:53;11.10;;;10.00;;
7719;SDS011;3902;49.474;8.616;2024-03-06T15:11:20;11.27;;;10.07;;
7719;SDS011;3902;49.474;8.616;2024-03-06T15:13:48;11.30;;;10.20;;